Time;durP1;ratioP1;P1;durP2;ratioP2;P2;SDS_P1;SDS_P2;PMS_P1;PMS_P2;Temp;Humidity;BMP_temperature;BMP_pressure;BME280_temperature;BME280_humidity;BME280_pressure;Samples;Min_cycle;Max_cycle;Signal;HPM_P1;HPM_P2
2022/09/19 00:00:24;;;;;;;10.10;4.10;;;;;;;9.60;77.70;98896.91;106569;1268;96465;-77
2022/09/19 00:03:16;;;;;;;11.60;3.90;;;;;;;9.57;77.74;98897.58;106344;1268;139064;-78
2022/09/19 00:05:48;;;;;;;10.20;3.70;;;;;;;9.55;77.73;98892.69;106452;1268;108928;-78
2022/09/19 00:08:20;;;;;;;11.00;3.90;;;;;;;9.52;77.74;98899.41;106268;1268;139003;-78
2022/09/19 00:10:52;;;;;;;8.40;3.90;;;;;;;9.50;77.74;98896.90;106365;1268;96483;-78
2022/09/19 00:13:24;;;;;;;9.70;3.60;;;;;;;9.48;77.61;98894.73;106479;1268;96570;-77
2022/09/19 00:15:56;;;;;;;7.50;3.60;;;;;;;9.43;77.46;98893.95;106471;1268;110809;-77
2022/09/19 00:18:29;;;;;;;9.10;3.30;;;;;;;9.37;77.38;98895.27;106459;1268;108930;-79
2022/09/19 00:21:01;;;;;;;8.40;3.50;;;;;;;9.33;77.38;98895.98;106307;1268;137891;-78
2022/09/19 00:26:22;;;;;;;8.40;3.60;;;;;;;9.27;77.44;98894.72;106354;1268;137723;-78
2022/09/19 00:28:55;;;;;;;10.40;3.50;;;;;;;9.23;77.16;98898.73;106359;1268;109988;-78
2022/09/19 00:31:27;;;;;;;7.80;3.60;;;;;;;9.18;77.19;98901.42;106462;1268;109224;-78
2022/09/19 00:34:00;;;;;;;8.90;3.90;;;;;;;9.14;77.29;98901.23;106497;1268;108422;-79
2022/09/19 00:36:32;;;;;;;10.40;3.90;;;;;;;9.11;77.25;98896.71;106446;1268;96561;-80
2022/09/19 00:39:07;;;;;;;7.00;3.40;;;;;;;9.06;77.17;98893.80;106410;1268;138019;-78
2022/09/19 00:41:41;;;;;;;9.50;3.40;;;;;;;9.01;77.31;98896.31;106479;1268;111295;-78
2022/09/19 00:44:43;;;;;;;7.90;3.80;;;;;;;8.99;77.39;98896.76;106340;1268;138466;-78
2022/09/19 00:47:24;;;;;;;7.90;3.40;;;;;;;8.96;77.35;98891.85;106396;1268;108850;-78
2022/09/19 00:50:00;;;;;;;9.80;3.80;;;;;;;8.93;77.41;98894.77;106222;1268;138023;-79
2022/09/19 00:52:40;;;;;;;5.70;3.10;;;;;;;8.89;77.37;98895.65;106395;1268;96556;-78
2022/09/19 00:55:12;;;;;;;7.60;3.30;;;;;;;8.87;77.48;98896.30;106330;1268;109752;-78
2022/09/19 00:57:54;;;;;;;6.60;3.40;;;;;;;8.85;77.53;98897.94;106296;1268;137820;-78
2022/09/19 01:00:26;;;;;;;7.30;3.40;;;;;;;8.84;77.65;98899.23;106339;1271;106323;-77
2022/09/19 01:02:58;;;;;;;8.50;3.30;;;;;;;8.82;77.66;98893.92;106219;1268;137977;-77
2022/09/19 01:05:42;;;;;;;6.80;3.50;;;;;;;8.82;77.76;98893.57;106502;1268;96497;-77
2022/09/19 01:08:43;;;;;;;10.20;3.60;;;;;;;8.81;77.76;98886.35;106276;1268;137908;-77
2022/09/19 01:11:38;;;;;;;8.80;3.50;;;;;;;8.81;77.84;98883.95;106387;1268;107885;-78
2022/09/19 01:14:25;;;;;;;6.60;3.80;;;;;;;8.79;77.82;98890.56;106245;1268;138220;-77
2022/09/19 01:17:07;;;;;;;8.70;3.70;;;;;;;8.78;77.82;98891.98;106353;1268;96503;-77
2022/09/19 01:20:06;;;;;;;8.80;3.70;;;;;;;8.77;77.97;98892.40;106273;1268;141443;-77
2022/09/19 01:22:56;;;;;;;8.30;3.60;;;;;;;8.77;77.93;98893.10;106050;1274;111063;-78
2022/09/19 01:25:34;;;;;;;8.60;4.00;;;;;;;8.74;77.91;98890.98;106008;1274;107825;-77
2022/09/19 01:28:20;;;;;;;10.20;3.70;;;;;;;8.74;77.97;98893.05;105990;1274;108858;-78
2022/09/19 01:31:18;;;;;;;10.20;4.10;;;;;;;8.72;77.96;98892.44;106074;1274;96869;-77
2022/09/19 01:34:01;;;;;;;9.10;3.90;;;;;;;8.70;77.89;98895.66;105988;1274;139957;-78
2022/09/19 01:36:39;;;;;;;7.00;3.60;;;;;;;8.68;77.87;98894.94;106164;1274;111173;-78
2022/09/19 01:39:13;;;;;;;9.40;3.90;;;;;;;8.67;77.97;98898.07;105972;1274;139541;-76
2022/09/19 01:41:51;;;;;;;9.70;4.00;;;;;;;8.66;77.94;98895.01;106186;1271;108599;-77
2022/09/19 01:44:25;;;;;;;10.10;3.90;;;;;;;8.63;77.72;98894.82;105973;1274;137869;-78
2022/09/19 01:47:14;;;;;;;8.70;3.60;;;;;;;8.60;77.83;98899.27;106168;1274;96383;-77
2022/09/19 01:49:50;;;;;;;;;;;;;;;8.55;77.55;98900.72;106011;1271;139023;-78
2022/09/19 01:52:42;;;;;;;9.50;4.10;;;;;;;8.48;77.55;98905.02;106108;1274;108771;-78
2022/09/19 01:55:22;;;;;;;7.80;3.80;;;;;;;8.40;77.52;98906.55;106126;1274;108734;-77
2022/09/19 01:58:09;;;;;;;9.00;3.70;;;;;;;8.35;77.63;98908.00;106023;1273;96670;-77
2022/09/19 02:00:49;;;;;;;8.70;3.90;;;;;;;8.32;77.77;98908.65;107641;1268;95155;-76
2022/09/19 02:03:36;;;;;;;9.20;3.70;;;;;;;8.29;77.88;98914.49;106206;1268;137885;-76
2022/09/19 02:06:15;;;;;;;9.90;3.80;;;;;;;8.28;77.88;98916.26;106383;1268;107734;-76
2022/09/19 02:08:58;;;;;;;6.90;3.20;;;;;;;8.26;77.89;98914.60;106308;1268;137787;-77
2022/09/19 02:11:46;;;;;;;10.40;3.50;;;;;;;8.25;77.88;98915.33;106495;1268;96567;-78
2022/09/19 02:14:21;;;;;;;5.90;3.20;;;;;;;8.27;77.87;98914.77;107150;1268;138006;-78
2022/09/19 02:17:03;;;;;;;9.00;3.60;;;;;;;8.27;77.79;98917.89;107921;1268;110073;-79
2022/09/19 02:19:41;;;;;;;5.90;3.40;;;;;;;8.28;77.83;98916.11;107344;1268;138234;-76
2022/09/19 02:22:21;;;;;;;9.10;3.60;;;;;;;8.30;77.95;98920.16;106401;1268;108765;-79
2022/09/19 02:24:58;;;;;;;9.90;3.80;;;;;;;8.31;77.76;98917.15;107972;1267;94700;-78
2022/09/19 02:27:37;;;;;;;6.10;3.50;;;;;;;8.32;77.73;98920.09;107883;1266;138743;-78
2022/09/19 02:30:13;;;;;;;9.70;4.10;;;;;;;8.32;77.66;98920.59;106889;1268;111892;-78
2022/09/19 02:32:48;;;;;;;10.80;4.00;;;;;;;8.31;77.54;98920.10;106319;1268;137400;-79
2022/09/19 02:35:36;;;;;;;9.20;4.40;;;;;;;8.29;77.47;98918.79;107122;1268;107842;-78
2022/09/19 02:38:16;;;;;;;7.10;4.10;;;;;;;8.26;77.47;98924.15;107764;1268;137724;-78
2022/09/19 02:40:56;;;;;;;10.30;4.00;;;;;;;8.24;77.54;98925.27;107875;1270;94849;-78
2022/09/19 02:43:39;;;;;;;7.90;3.90;;;;;;;8.23;77.44;98928.09;107783;1269;110007;-78
2022/09/19 02:46:26;;;;;;;12.10;4.30;;;;;;;8.21;77.50;98930.76;107061;1268;107758;-78
2022/09/19 02:49:07;;;;;;;8.70;4.10;;;;;;;8.21;77.44;98931.27;106411;1268;109123;-77
2022/09/19 02:51:44;;;;;;;6.80;3.30;;;;;;;8.20;77.38;98928.91;106286;1270;139770;-77
2022/09/19 02:54:20;;;;;;;6.50;3.70;;;;;;;8.17;77.42;98927.63;106429;1268;96352;-77
2022/09/19 02:56:56;;;;;;;10.10;4.00;;;;;;;8.14;77.26;98926.23;107849;1268;138748;-77
2022/09/19 02:59:33;;;;;;;10.50;4.50;;;;;;;8.14;77.54;98927.96;107964;1267;107772;-77
2022/09/19 03:02:11;;;;;;;12.20;4.20;;;;;;;8.16;77.60;98927.17;107708;1268;137544;-78
2022/09/19 03:04:50;;;;;;;8.00;4.10;;;;;;;8.15;77.54;98924.27;106366;1268;96939;-78
2022/09/19 03:07:27;;;;;;;8.80;4.20;;;;;;;8.11;77.46;98918.73;106380;1268;96545;-78
2022/09/19 03:10:09;;;;;;;11.70;4.20;;;;;;;8.05;77.38;98922.28;106403;1268;111576;-78
2022/09/19 03:12:53;;;;;;;6.20;3.60;;;;;;;8.00;77.56;98925.77;106320;1268;108878;-78
2022/09/19 03:15:32;;;;;;;8.20;4.10;;;;;;;7.97;77.67;98925.41;106326;1265;139168;-77
2022/09/19 03:18:09;;;;;;;9.50;4.40;;;;;;;7.98;77.83;98927.96;106339;1268;96388;-77
2022/09/19 03:20:46;;;;;;;7.40;4.30;;;;;;;7.98;77.83;98928.48;106297;1268;137993;-77
2022/09/19 03:23:23;;;;;;;8.90;3.50;;;;;;;7.96;78.01;98931.15;106327;1268;111554;-77
2022/09/19 03:25:57;;;;;;;8.80;3.80;;;;;;;7.99;77.92;98933.63;106280;1268;138730;-77
2022/09/19 03:28:29;;;;;;;6.10;3.40;;;;;;;7.97;77.99;98933.54;106478;1268;108785;-76
2022/09/19 03:31:01;;;;;;;7.80;4.10;;;;;;;8.00;78.17;98935.83;106414;1268;96498;-77
2022/09/19 03:33:34;;;;;;;8.10;3.80;;;;;;;8.03;78.23;98942.08;106264;1268;137649;-77
2022/09/19 03:36:08;;;;;;;9.10;4.20;;;;;;;8.05;78.16;98939.22;106460;1268;111357;-78
2022/09/19 03:38:44;;;;;;;8.90;4.10;;;;;;;8.07;78.10;98940.52;106953;1268;138045;-75
2022/09/19 03:41:22;;;;;;;8.70;3.80;;;;;;;8.07;78.04;98939.85;107944;1267;108839;-76
2022/09/19 03:44:00;;;;;;;9.50;4.40;;;;;;;8.11;78.01;98945.06;107815;1268;137654;-77
2022/09/19 03:46:34;;;;;;;11.60;4.30;;;;;;;8.09;77.89;98947.05;107960;1268;94801;-76
2022/09/19 03:49:06;;;;;;;7.90;4.40;;;;;;;8.09;78.08;98949.84;106826;1268;111169;-78
2022/09/19 03:51:38;;;;;;;6.80;3.80;;;;;;;8.08;78.04;98953.48;106250;1267;138611;-79
2022/09/19 03:54:11;;;;;;;9.00;4.10;;;;;;;8.08;78.04;98950.04;106360;1268;108491;-79
2022/09/19 03:56:46;;;;;;;7.30;4.00;;;;;;;8.08;78.00;98953.13;106376;1268;137956;-78
2022/09/19 03:59:19;;;;;;;7.80;3.90;;;;;;;8.07;78.06;98955.42;106424;1268;96491;-78
2022/09/19 04:01:54;;;;;;;7.10;4.10;;;;;;;8.07;78.03;98957.16;105102;1268;1425795;-78
2022/09/19 04:04:26;;;;;;;6.40;4.00;;;;;;;8.08;78.08;98954.19;107864;1268;108861;-77
2022/09/19 04:07:01;;;;;;;6.40;4.30;;;;;;;8.09;78.07;98952.40;106499;1268;108909;-78
2022/09/19 04:09:34;;;;;;;6.10;4.10;;;;;;;8.11;78.10;98958.55;106228;1268;137846;-78
2022/09/19 04:12:08;;;;;;;10.10;4.90;;;;;;;8.09;78.10;98959.14;106305;1268;96472;-78
2022/09/19 04:14:43;;;;;;;8.70;4.30;;;;;;;8.07;77.99;98961.49;106257;1268;137188;-77
2022/09/19 04:17:15;;;;;;;8.10;4.80;;;;;;;8.06;78.16;98964.30;106299;1270;106482;-78
2022/09/19 04:19:57;;;;;;;9.30;4.50;;;;;;;8.05;78.09;98962.96;106315;1268;137384;-78
2022/09/19 04:23:00;;;;;;;10.80;5.20;;;;;;;8.04;78.13;98967.69;106400;1268;96456;-78
2022/09/19 04:25:42;;;;;;;8.80;4.90;;;;;;;8.04;78.12;98969.39;107880;1268;139861;-79
2022/09/19 04:28:24;;;;;;;7.70;5.00;;;;;;;8.04;77.99;98968.90;107928;1268;111302;-78
2022/09/19 04:30:56;;;;;;;10.50;5.40;;;;;;;8.04;78.16;98972.54;107903;1268;108921;-78
2022/09/19 04:33:29;;;;;;;11.40;5.30;;;;;;;8.05;77.98;98976.13;107799;1268;138014;-78
2022/09/19 04:36:03;;;;;;;9.80;5.40;;;;;;;8.08;78.12;98974.96;107858;1270;94758;-78
2022/09/19 04:38:36;;;;;;;11.40;5.60;;;;;;;8.11;77.98;98979.33;107814;1268;136905;-78
2022/09/19 04:41:16;;;;;;;9.50;6.40;;;;;;;8.12;77.91;98983.63;107156;1268;111146;-78
2022/09/19 04:43:50;;;;;;;9.70;6.10;;;;;;;8.12;77.98;98985.17;106287;1268;137275;-79
2022/09/19 04:46:32;;;;;;;10.60;5.60;;;;;;;8.13;77.98;98987.38;106344;1268;106872;-77
2022/09/19 04:49:11;;;;;;;8.70;5.70;;;;;;;8.14;77.93;98989.05;106404;1268;96458;-78
2022/09/19 04:51:43;;;;;;;8.20;5.90;;;;;;;8.14;77.80;98990.45;106267;1268;137680;-77
2022/09/19 04:54:16;;;;;;;9.60;5.60;;;;;;;8.12;77.64;98986.41;106270;1268;111156;-77
2022/09/19 04:56:50;;;;;;;11.30;6.20;;;;;;;8.10;77.58;98991.88;106314;1268;139353;-78
2022/09/19 04:59:22;;;;;;;10.00;6.30;;;;;;;8.09;77.59;98991.20;106446;1268;109073;-78
2022/09/19 05:01:55;;;;;;;11.60;6.90;;;;;;;8.09;77.61;98991.71;106883;1267;137968;-78
2022/09/19 05:04:27;;;;;;;8.80;6.90;;;;;;;8.09;77.42;98996.89;107367;1268;97113;-78
2022/09/19 05:07:00;;;;;;;8.30;6.60;;;;;;;8.06;77.38;98996.15;106496;1268;110072;-77
2022/09/19 05:09:33;;;;;;;12.50;7.10;;;;;;;8.00;77.27;99000.91;106337;1268;138778;-77
2022/09/19 05:12:11;;;;;;;9.30;6.70;;;;;;;7.96;77.55;99004.88;107211;1267;108957;-77
2022/09/19 05:14:51;;;;;;;10.10;7.40;;;;;;;7.92;77.66;99002.48;107482;1268;138899;-77
2022/09/19 05:17:25;;;;;;;11.60;7.00;;;;;;;7.91;77.54;99008.42;106483;1268;96516;-78
2022/09/19 05:19:57;;;;;;;11.80;7.20;;;;;;;7.92;77.87;99005.77;106296;1268;138071;-77
2022/09/19 05:22:31;;;;;;;12.60;7.50;;;;;;;7.93;77.80;99011.05;107916;1268;108903;-78
2022/09/19 05:25:04;;;;;;;14.70;8.10;;;;;;;7.94;77.79;99014.84;107478;1268;108722;-78
2022/09/19 05:27:37;;;;;;;13.00;8.00;;;;;;;7.97;77.83;99013.13;106320;1268;138317;-77
2022/09/19 05:30:12;;;;;;;11.10;8.00;;;;;;;8.03;77.71;99016.34;106417;1268;96484;-76
2022/09/19 05:32:46;;;;;;;14.30;9.50;;;;;;;8.07;77.74;99014.48;107807;1268;137509;-78
2022/09/19 05:35:40;;;;;;;13.00;9.20;;;;;;;8.09;77.54;99018.89;107904;1268;108711;-77
2022/09/19 05:38:26;;;;;;;15.30;9.40;;;;;;;8.09;77.55;99023.76;107815;1268;139099;-77
2022/09/19 05:41:18;;;;;;;14.30;9.40;;;;;;;8.06;77.34;99020.39;106653;1268;96481;-82
2022/09/19 05:44:16;;;;;;;14.80;8.90;;;;;;;8.00;77.22;99021.70;106304;1268;137401;-79
2022/09/19 05:46:53;;;;;;;12.80;9.00;;;;;;;7.96;77.37;99027.23;106378;1268;109791;-79
2022/09/19 05:49:26;;;;;;;12.30;8.40;;;;;;;7.94;77.40;99029.20;106387;1268;108785;-78
2022/09/19 05:53:51;;;;;;;14.80;10.60;;;;;;;7.94;77.63;99031.45;106414;1268;107750;-80
2022/09/19 05:54:52;;;;;;;14.40;10.60;;;;;;;7.98;77.76;99030.96;106325;1268;96531;-80
2022/09/19 05:57:53;;;;;;;16.20;10.80;;;;;;;8.03;77.83;99036.77;107071;1269;137933;-79
2022/09/19 06:00:28;;;;;;;15.00;11.20;;;;;;;8.08;77.62;99038.15;106109;1269;110284;-78
2022/09/19 06:03:01;;;;;;;18.40;10.00;;;;;;;8.08;77.60;99039.37;106100;1268;140342;-77
2022/09/19 06:05:43;;;;;;;13.90;10.30;;;;;;;8.10;77.63;99043.80;106148;1268;109573;-77
2022/09/19 06:08:15;;;;;;;15.40;10.40;;;;;;;8.13;77.67;99044.02;106087;1268;138114;-77
2022/09/19 06:10:49;;;;;;;15.80;11.70;;;;;;;8.14;77.60;99047.91;106242;1268;96463;-77
2022/09/19 06:14:13;;;;;;;17.00;11.60;;;;;;;8.16;77.66;99048.02;106295;1268;111148;-77
2022/09/19 06:16:17;;;;;;;14.50;11.50;;;;;;;8.16;77.58;99052.85;106100;1270;109007;-77
2022/09/19 06:19:18;;;;;;;14.40;11.70;;;;;;;8.16;77.56;99053.91;106066;1270;107755;-77
2022/09/19 06:21:58;;;;;;;15.20;12.30;;;;;;;8.17;77.65;99060.80;106200;1268;138228;-78
2022/09/19 06:24:30;;;;;;;19.10;13.20;;;;;;;8.19;77.80;99064.51;106330;1268;96534;-77
2022/09/19 06:27:03;;;;;;;15.90;13.00;;;;;;;8.21;77.83;99066.01;106120;1268;139373;-77
2022/09/19 06:29:35;;;;;;;18.20;14.20;;;;;;;8.20;77.88;99069.49;106155;1268;107920;-80
2022/09/19 06:32:26;;;;;;;17.40;12.60;;;;;;;8.18;77.80;99069.40;106132;1268;139673;-78
2022/09/19 06:35:29;;;;;;;16.80;14.00;;;;;;;8.13;77.78;99073.27;106217;1268;96451;-76
2022/09/19 06:38:04;;;;;;;18.90;14.90;;;;;;;8.13;77.98;99077.76;106027;1268;139451;-77
2022/09/19 06:40:38;;;;;;;22.10;15.20;;;;;;;8.13;78.01;99081.03;106219;1268;111323;-77
2022/09/19 06:43:30;;;;;;;17.60;14.50;;;;;;;8.15;78.07;99082.54;106161;1268;109158;-78
2022/09/19 06:46:33;;;;;;;20.70;15.50;;;;;;;8.15;78.05;99086.33;106246;1268;106923;-79
2022/09/19 06:49:28;;;;;;;21.30;15.50;;;;;;;8.16;78.10;99087.15;106313;1268;96474;-79
2022/09/19 06:52:19;;;;;;;20.80;15.20;;;;;;;8.21;78.21;99088.52;106241;1268;96481;-79
2022/09/19 06:54:53;;;;;;;22.10;15.90;;;;;;;8.22;77.95;99089.83;106245;1268;109840;-76
2022/09/19 06:57:25;;;;;;;21.90;15.50;;;;;;;8.24;77.99;99096.69;106109;1268;139661;-78
2022/09/19 07:00:00;;;;;;;23.30;16.30;;;;;;;8.23;77.91;99102.29;106260;1268;110047;-77
2022/09/19 07:02:34;;;;;;;24.00;15.40;;;;;;;8.23;78.12;99105.55;106207;1268;138548;-77
2022/09/19 07:05:09;;;;;;;21.10;15.20;;;;;;;8.23;78.01;99103.15;106306;1268;96454;-78
2022/09/19 07:07:55;;;;;;;20.90;15.90;;;;;;;8.22;78.00;99109.07;106241;1268;138556;-72
2022/09/19 07:10:28;;;;;;;24.50;17.10;;;;;;;8.24;78.10;99110.54;106262;1268;108554;-73
2022/09/19 07:13:01;;;;;;;20.60;16.80;;;;;;;8.27;78.21;99113.23;106158;1268;107665;-73
2022/09/19 07:15:36;;;;;;;23.40;17.10;;;;;;;8.29;78.26;99112.95;106167;1268;139101;-72
2022/09/19 07:18:10;;;;;;;24.30;16.40;;;;;;;8.31;78.22;99111.80;106169;1268;96500;-73
2022/09/19 07:20:44;;;;;;;21.10;15.90;;;;;;;8.30;78.06;99117.40;106172;1267;137834;-73
2022/09/19 07:23:24;;;;;;;19.80;15.70;;;;;;;8.32;78.02;99127.22;106270;1268;108569;-73
2022/09/19 07:26:29;;;;;;;24.30;16.30;;;;;;;8.33;78.18;99128.21;105869;1268;138019;-73
2022/09/19 07:29:02;;;;;;;21.10;16.30;;;;;;;8.36;78.14;99130.16;106309;1268;96489;-72
2022/09/19 07:31:35;;;;;;;21.10;16.10;;;;;;;8.38;78.03;99130.08;106247;1269;96529;-73
2022/09/19 07:34:07;;;;;;;22.20;16.40;;;;;;;8.39;77.90;99141.15;106272;1268;111182;-72
2022/09/19 07:36:48;;;;;;;23.80;16.80;;;;;;;8.39;77.97;99140.27;106310;1268;108134;-73
2022/09/19 07:39:20;;;;;;;23.10;16.90;;;;;;;8.41;78.11;99144.52;106163;1268;138173;-73
2022/09/19 07:42:14;;;;;;;21.70;17.00;;;;;;;8.43;78.12;99149.27;106295;1268;96443;-73
2022/09/19 07:45:10;;;;;;;23.40;17.20;;;;;;;8.48;78.32;99150.15;105925;1268;138046;-72
2022/09/19 07:47:59;;;;;;;22.20;17.40;;;;;;;8.50;78.30;99152.66;106312;1268;110231;-72
2022/09/19 07:51:01;;;;;;;20.90;16.00;;;;;;;8.50;78.38;99156.63;106036;1268;138573;-72
2022/09/19 07:53:40;;;;;;;19.70;15.80;;;;;;;8.49;78.55;99154.08;107713;1268;107555;-73
2022/09/19 07:56:13;;;;;;;17.80;15.30;;;;;;;8.48;78.69;99159.48;107671;1268;139029;-74
2022/09/19 07:58:46;;;;;;;18.30;14.60;;;;;;;8.47;78.61;99165.94;107804;1268;95486;-74
2022/09/19 08:01:18;;;;;;;18.60;15.20;;;;;;;8.46;78.56;99170.49;107803;1267;110927;-73
2022/09/19 08:04:04;;;;;;;;;;;;;;;8.43;78.42;99171.29;107932;1268;108309;-73
2022/09/19 08:06:56;;;;;;;17.60;13.90;;;;;;;8.37;78.53;99177.27;107829;1268;110025;-74
2022/09/19 08:09:29;;;;;;;19.00;14.40;;;;;;;8.36;78.67;99175.88;107703;1267;137978;-73
2022/09/19 08:12:19;;;;;;;20.10;15.10;;;;;;;8.37;78.72;99183.80;106768;1268;96551;-73
2022/09/19 08:14:57;;;;;;;18.30;14.50;;;;;;;8.39;78.85;99184.60;106994;1268;138291;-71
2022/09/19 08:17:30;;;;;;;18.40;14.70;;;;;;;8.42;79.09;99183.60;107670;1268;107182;-72
2022/09/19 08:20:03;;;;;;;16.70;14.50;;;;;;;8.48;79.33;99186.67;107780;1268;138403;-72
2022/09/19 08:22:36;;;;;;;16.00;14.30;;;;;;;8.56;79.39;99187.90;107842;1268;94978;-72
2022/09/19 08:25:14;;;;;;;15.70;13.00;;;;;;;8.63;79.18;99183.29;107879;1269;95006;-72
2022/09/19 08:27:47;;;;;;;19.90;14.10;;;;;;;8.66;79.10;99190.27;107670;1268;138322;-71
2022/09/19 08:30:21;;;;;;;14.80;13.10;;;;;;;8.71;79.12;99191.10;107372;1268;109132;-71
2022/09/19 08:32:56;;;;;;;17.70;13.90;;;;;;;8.73;79.10;99194.11;106164;1269;138843;-73
2022/09/19 08:35:30;;;;;;;15.60;12.40;;;;;;;8.76;79.16;99198.84;106171;1268;96597;-73
2022/09/19 08:38:03;;;;;;;14.10;12.00;;;;;;;8.79;79.01;99200.83;106112;1268;139122;-74
2022/09/19 08:40:43;;;;;;;15.70;12.10;;;;;;;8.78;78.92;99204.48;106121;1270;111586;-73
2022/09/19 08:43:22;;;;;;;19.30;12.60;;;;;;;8.80;79.14;99204.95;106293;1268;109144;-74
2022/09/19 08:46:14;;;;;;;15.00;12.70;;;;;;;8.80;79.08;99208.77;105935;1267;138012;-73
2022/09/19 08:48:58;;;;;;;18.60;12.50;;;;;;;8.80;79.08;99219.52;107738;1268;95578;-74
2022/09/19 08:51:34;;;;;;;19.30;13.40;;;;;;;8.82;79.36;99215.98;107664;1267;139628;-73
2022/09/19 08:54:16;;;;;;;17.30;13.10;;;;;;;8.83;79.44;99219.55;107790;1268;110069;-73
2022/09/19 08:56:49;;;;;;;16.50;12.60;;;;;;;8.84;79.51;99222.46;107620;1268;138247;-74
2022/09/19 08:59:23;;;;;;;15.20;12.40;;;;;;;8.85;79.45;99219.66;107791;1268;109127;-74
2022/09/19 09:02:08;;;;;;;12.80;11.50;;;;;;;8.85;79.23;99221.58;107703;1268;138444;-73
2022/09/19 09:05:05;;;;;;;13.40;11.80;;;;;;;8.86;79.38;99223.27;107743;1270;94972;-71
2022/09/19 09:07:50;;;;;;;14.10;11.60;;;;;;;8.86;79.35;99222.20;107171;1267;138422;-73
2022/09/19 09:10:54;;;;;;;13.80;11.00;;;;;;;8.89;79.35;99221.92;106081;1268;109275;-72
2022/09/19 09:13:43;;;;;;;11.70;10.40;;;;;;;8.95;79.37;99224.73;106195;1268;108990;-72
2022/09/19 09:16:48;;;;;;;12.70;10.40;;;;;;;9.01;79.21;99228.69;106314;1268;96586;-73
2022/09/19 09:19:34;;;;;;;10.90;9.70;;;;;;;9.03;79.28;99227.73;106182;1268;96487;-73
2022/09/19 09:22:16;;;;;;;11.70;10.00;;;;;;;9.05;79.23;99229.04;106228;1270;111996;-73
2022/09/19 09:25:05;;;;;;;10.70;9.60;;;;;;;9.07;79.40;99229.43;106261;1268;107962;-72
2022/09/19 09:27:53;;;;;;;10.20;9.20;;;;;;;9.11;79.37;99231.02;106020;1268;137977;-72
2022/09/19 09:30:29;;;;;;;10.00;9.00;;;;;;;9.16;79.49;99233.27;106156;1269;96612;-72
2022/09/19 09:33:15;;;;;;;10.30;9.30;;;;;;;9.19;79.22;99235.55;106152;1269;138000;-72
2022/09/19 09:35:50;;;;;;;10.80;9.20;;;;;;;9.23;79.28;99238.48;106238;1268;111107;-72
2022/09/19 09:38:30;;;;;;;8.70;7.80;;;;;;;9.28;79.35;99233.95;106057;1268;138011;-72
2022/09/19 09:44:29;;;;;;;10.90;8.90;;;;;;;9.28;79.21;99239.48;106121;1268;138248;-73
2022/09/19 09:47:07;;;;;;;10.10;8.30;;;;;;;9.31;79.33;99242.98;106209;1268;96535;-73
2022/09/19 09:49:42;;;;;;;9.40;8.40;;;;;;;9.32;79.15;99245.55;107574;1268;138256;-73
2022/09/19 09:52:28;;;;;;;10.60;8.00;;;;;;;9.32;79.14;99244.69;107843;1268;109194;-73
2022/09/19 09:58:14;;;;;;;9.70;7.70;;;;;;;9.39;79.36;99249.95;107787;1268;94757;-74
2022/09/19 10:03:49;;;;;;;9.10;7.60;;;;;;;9.47;79.19;99252.02;107747;1268;138642;-73
2022/09/19 10:07:09;;;;;;;7.90;7.00;;;;;;;9.52;79.30;99258.08;107697;1268;108815;-73
2022/09/19 10:09:44;;;;;;;;;;;;;;;9.57;79.28;99259.08;107688;1268;138396;-73
2022/09/19 10:12:23;;;;;;;10.50;6.90;;;;;;;9.59;79.18;99259.65;107856;1268;94497;-73
2022/09/19 10:15:21;;;;;;;8.20;7.20;;;;;;;9.62;78.90;99266.66;107764;1268;138431;-73
2022/09/19 10:18:06;;;;;;;9.90;7.30;;;;;;;9.62;78.75;99261.09;107859;1268;109627;-73
2022/09/19 10:20:49;;;;;;;9.90;8.50;;;;;;;9.61;78.57;99265.97;107727;1267;138079;-73
2022/09/19 10:23:25;;;;;;;10.50;8.30;;;;;;;9.61;78.69;99267.71;107812;1268;109039;-73
2022/09/19 10:26:04;;;;;;;8.90;7.80;;;;;;;9.62;78.78;99269.08;107671;1268;139318;-74
2022/09/19 10:28:41;;;;;;;10.10;8.60;;;;;;;9.62;78.75;99270.44;107904;1268;94823;-74
2022/09/19 10:31:34;;;;;;;9.90;8.10;;;;;;;9.62;78.80;99276.52;107897;1268;110171;-73
2022/09/19 10:34:30;;;;;;;12.70;9.00;;;;;;;9.61;78.91;99280.58;107829;1268;108967;-73
2022/09/19 10:37:15;;;;;;;11.50;8.10;;;;;;;9.61;79.03;99283.34;107775;1268;108859;-73
2022/09/19 10:39:48;;;;;;;9.70;7.70;;;;;;;9.61;79.02;99288.17;107748;1268;138640;-72
2022/09/19 10:42:34;;;;;;;9.10;7.50;;;;;;;9.66;79.06;99284.32;107850;1268;94728;-73
2022/09/19 10:45:25;;;;;;;8.70;7.80;;;;;;;9.69;78.89;99287.16;107727;1267;138543;-73
2022/09/19 10:48:09;;;;;;;10.80;7.90;;;;;;;9.71;78.83;99292.84;107850;1267;109049;-73
2022/09/19 10:50:47;;;;;;;8.30;7.40;;;;;;;9.70;78.74;99295.11;107742;1268;139408;-73
2022/09/19 10:53:26;;;;;;;10.30;7.80;;;;;;;9.71;78.72;99293.00;107825;1268;94858;-73
2022/09/19 10:56:04;;;;;;;11.70;8.30;;;;;;;9.73;78.83;99299.70;107769;1268;139115;-73
2022/09/19 10:58:43;;;;;;;10.70;8.30;;;;;;;9.76;78.86;99303.86;107155;1268;110906;-72
2022/09/19 11:01:25;;;;;;;8.90;8.00;;;;;;;9.78;78.74;99299.60;106219;1270;108847;-74
2022/09/19 11:04:06;;;;;;;9.30;8.10;;;;;;;9.78;78.85;99307.77;106158;1268;138214;-74
2022/09/19 11:06:58;;;;;;;10.30;8.10;;;;;;;9.79;78.86;99305.81;106388;1268;96591;-73
2022/09/19 11:09:34;;;;;;;9.90;7.80;;;;;;;9.82;79.03;99306.73;106202;1268;137836;-75
2022/09/19 11:12:10;;;;;;;9.00;7.90;;;;;;;9.83;78.93;99305.10;106321;1270;111960;-74
2022/09/19 11:14:46;;;;;;;9.10;7.60;;;;;;;9.83;78.89;99306.14;106191;1270;137917;-74
2022/09/19 11:17:55;;;;;;;9.10;6.90;;;;;;;9.84;78.78;99303.67;106157;1270;108872;-74
2022/09/19 11:20:57;;;;;;;8.80;6.60;;;;;;;9.87;78.71;99304.94;106204;1269;138951;-74
2022/09/19 11:23:59;;;;;;;8.60;7.10;;;;;;;9.86;78.57;99304.13;106305;1271;96975;-73
2022/09/19 11:26:44;;;;;;;9.30;6.50;;;;;;;9.88;78.70;99308.03;106155;1268;137914;-73
2022/09/19 11:29:36;;;;;;;10.60;6.80;;;;;;;9.91;78.93;99307.73;106426;1268;107560;-73
2022/09/19 11:32:24;;;;;;;7.90;6.40;;;;;;;9.99;79.13;99310.64;106618;1268;138230;-72
2022/09/19 11:35:28;;;;;;;8.60;6.00;;;;;;;10.10;79.01;99309.99;106403;1268;96493;-74
2022/09/19 11:38:17;;;;;;;8.20;5.60;;;;;;;10.17;78.54;99314.20;106352;1268;138165;-73
2022/09/19 11:41:34;;;;;;;8.30;5.40;;;;;;;10.23;78.27;99311.00;106430;1268;110556;-73
2022/09/19 11:44:28;;;;;;;8.50;5.70;;;;;;;10.23;77.81;99313.27;106277;1271;138550;-71
2022/09/19 11:47:23;;;;;;;8.30;5.50;;;;;;;10.25;77.76;99313.67;107904;1268;108823;-72
2022/09/19 11:50:21;;;;;;;6.70;5.30;;;;;;;10.27;77.40;99312.20;106647;1270;138156;-73
2022/09/19 11:53:17;;;;;;;6.60;5.10;;;;;;;10.26;77.34;99315.19;106369;1268;96480;-72
2022/09/19 11:56:06;;;;;;;5.30;4.80;;;;;;;10.27;77.39;99313.25;106248;1270;137921;-73
2022/09/19 11:58:48;;;;;;;7.80;5.50;;;;;;;10.27;77.22;99317.23;106376;1268;106848;-73
2022/09/19 12:01:35;;;;;;;7.60;5.80;;;;;;;10.29;77.38;99319.40;106375;1271;108841;-73
2022/09/19 12:04:27;;;;;;;8.60;5.60;;;;;;;10.33;77.50;99319.76;106347;1270;96500;-74
2022/09/19 12:07:27;;;;;;;9.00;5.50;;;;;;;10.39;77.39;99324.35;106360;1270;96456;-72
2022/09/19 12:10:12;;;;;;;8.50;5.90;;;;;;;10.40;77.19;99322.37;106497;1270;111149;-72
2022/09/19 12:12:50;;;;;;;5.80;5.00;;;;;;;10.41;76.70;99321.11;106390;1268;106742;-72
2022/09/19 12:15:35;;;;;;;6.50;5.20;;;;;;;10.39;76.51;99319.62;106229;1268;138085;-71
2022/09/19 12:18:13;;;;;;;7.60;5.90;;;;;;;10.43;76.87;99322.60;106376;1268;96447;-72
2022/09/19 12:20:49;;;;;;;9.80;5.20;;;;;;;10.47;76.93;99327.42;106288;1268;137893;-72
2022/09/19 12:26:28;;;;;;;9.00;5.30;;;;;;;10.60;76.83;99327.03;106274;1270;138189;-73
2022/09/19 12:29:07;;;;;;;7.30;5.40;;;;;;;10.63;76.46;99328.81;106354;1271;108801;-73
2022/09/19 12:31:50;;;;;;;6.80;5.20;;;;;;;10.64;76.19;99330.64;106328;1268;138174;-72
2022/09/19 12:34:35;;;;;;;8.20;5.10;;;;;;;10.65;76.26;99331.48;106374;1270;96481;-73
2022/09/19 12:37:20;;;;;;;6.80;5.40;;;;;;;10.68;76.33;99332.55;106455;1268;111113;-73
2022/09/19 12:40:03;;;;;;;8.90;6.00;;;;;;;10.70;76.45;99332.61;106230;1268;138150;-73